Time;durP1;ratioP1;P1;durP2;ratioP2;P2;SDS_P1;SDS_P2;PMS_P1;PMS_P2;Temp;Humidity;BMP_temperature;BMP_pressure;BME280_temperature;BME280_humidity;BME280_pressure;Samples;Min_cycle;Max_cycle;Signal;HPM_P1;HPM_P2
2023/10/18 00:01:00;;;;;;;0.75;0.57;;;;;;;2.12;100.00;95605.94;1023165;28;20028;-75
2023/10/18 00:01:32;;;;;;;0.98;0.88;;;;;;;2.12;100.00;95605.94;1025829;28;20259;-75
2023/10/18 00:02:02;;;;;;;1.27;1.20;;;;;;;2.12;100.00;95602.56;1026987;28;20278;-74
2023/10/18 00:02:37;;;;;;;0.28;0.28;;;;;;;2.12;100.00;95600.75;1022589;29;20313;-74
2023/10/18 00:03:08;;;;;;;2.83;0.98;;;;;;;2.11;100.00;95599.19;1021345;29;20046;-75
2023/10/18 00:03:39;;;;;;;2.75;2.05;;;;;;;2.10;100.00;95607.94;1018972;29;20355;-75
2023/10/18 00:04:10;;;;;;;1.67;1.58;;;;;;;2.12;100.00;95605.16;1016102;29;20336;-75
2023/10/18 00:04:41;;;;;;;0.82;0.82;;;;;;;2.11;100.00;95606.13;1019305;29;20027;-75
2023/10/18 00:05:12;;;;;;;1.00;1.00;;;;;;;2.09;100.00;95605.56;1019079;29;20275;-76
2023/10/18 00:05:43;;;;;;;0.40;0.40;;;;;;;2.11;100.00;95601.78;1019716;29;20047;-74
2023/10/18 00:06:16;;;;;;;0.82;0.82;;;;;;;2.09;100.00;95598.59;1023079;29;20259;-74
2023/10/18 00:06:48;;;;;;;2.08;1.92;;;;;;;2.10;100.00;95607.94;1019523;29;20123;-76
2023/10/18 00:07:20;;;;;;;2.28;2.08;;;;;;;2.10;100.00;95604.56;1023165;29;20278;-74
2023/10/18 00:07:57;;;;;;;1.38;1.30;;;;;;;2.07;100.00;95603.16;1019028;29;20315;-75
2023/10/18 00:08:28;;;;;;;1.42;1.35;;;;;;;2.07;100.00;95603.16;1024757;28;20297;-75
2023/10/18 00:08:58;;;;;;;0.20;0.15;;;;;;;2.06;100.00;95601.59;1022946;29;20283;-75
2023/10/18 00:10:21;;;;;;;0.60;0.60;;;;;;;2.06;100.00;95604.19;1019754;29;20592;-75
2023/10/18 00:10:53;;;;;;;0.75;0.75;;;;;;;1.99;100.00;95598.28;1022994;29;20354;-75
2023/10/18 00:11:25;;;;;;;1.90;1.80;;;;;;;1.87;100.00;95581.84;1025207;28;20752;-73
2023/10/18 00:11:56;;;;;;;1.85;1.70;;;;;;;2.04;100.00;95603.59;1027100;28;20621;-75
2023/10/18 00:12:27;;;;;;;1.13;1.02;;;;;;;2.03;100.00;95609.78;1026647;28;20803;-75
2023/10/18 00:12:59;;;;;;;0.45;0.45;;;;;;;2.04;100.00;95602.81;1023258;28;20290;-75
2023/10/18 00:13:30;;;;;;;1.85;1.75;;;;;;;2.04;100.00;95600.22;1024330;28;20468;-75
2023/10/18 00:14:01;;;;;;;1.65;1.55;;;;;;;2.02;100.00;95605.63;1027184;28;20258;-74
2023/10/18 00:14:32;;;;;;;1.48;1.13;;;;;;;2.02;100.00;95604.84;1027116;28;20318;-76
2023/10/18 00:15:05;;;;;;;1.92;1.23;;;;;;;2.01;100.00;95598.88;1027006;28;20026;-75
2023/10/18 00:15:36;;;;;;;1.85;1.42;;;;;;;2.01;100.00;95598.88;1026987;28;20026;-76
2023/10/18 00:16:06;;;;;;;1.27;1.27;;;;;;;2.02;100.00;95597.06;1022995;29;20266;-76
2023/10/18 00:16:37;;;;;;;2.30;2.15;;;;;;;1.99;100.00;95595.69;1020594;28;20495;-75
2023/10/18 00:17:09;;;;;;;0.80;0.80;;;;;;;2.01;100.00;95598.88;1026459;28;20023;-75
2023/10/18 00:17:39;;;;;;;0.68;0.68;;;;;;;2.02;100.00;95597.06;1023100;28;20047;-73
2023/10/18 00:18:12;;;;;;;0.50;0.50;;;;;;;2.02;100.00;95599.66;1026759;28;20345;-76
2023/10/18 00:18:43;;;;;;;0.88;0.88;;;;;;;2.02;100.00;95605.63;1023101;29;20512;-75
2023/10/18 00:19:13;;;;;;;0.73;0.73;;;;;;;2.01;100.00;95604.03;1019937;29;20271;-73
2023/10/18 00:19:44;;;;;;;1.50;1.42;;;;;;;2.01;100.00;95598.88;1023087;29;20031;-76
2023/10/18 00:20:15;;;;;;;2.03;1.00;;;;;;;2.02;100.00;95605.63;1023079;28;20114;-75
2023/10/18 00:20:46;;;;;;;1.25;1.15;;;;;;;1.95;100.00;95589.38;1023392;29;20078;-75
2023/10/18 00:21:16;;;;;;;1.17;1.13;;;;;;;2.00;100.00;95597.25;1019135;29;20326;-75
2023/10/18 00:21:47;;;;;;;1.08;1.05;;;;;;;2.01;100.00;95604.03;1024384;28;20024;-75
2023/10/18 00:22:17;;;;;;;1.90;1.30;;;;;;;2.03;100.00;95604.59;1027277;28;20042;-75
2023/10/18 00:22:48;;;;;;;2.92;2.05;;;;;;;2.04;100.00;95603.59;1022387;29;20027;-75
2023/10/18 00:23:18;;;;;;;2.40;2.05;;;;;;;1.98;100.00;95586.34;1019248;29;20027;-75
2023/10/18 00:23:49;;;;;;;0.60;0.60;;;;;;;2.04;100.00;95598.41;1019035;29;20035;-75
2023/10/18 00:24:19;;;;;;;1.90;1.13;;;;;;;2.07;100.00;95603.16;1023032;29;20074;-74
2023/10/18 00:24:49;;;;;;;0.80;0.80;;;;;;;2.05;100.00;95602.59;1023388;29;20027;-76
2023/10/18 00:25:20;;;;;;;0.88;0.88;;;;;;;2.05;100.00;95597.44;1025532;28;20693;-75
2023/10/18 00:25:50;;;;;;;3.20;1.63;;;;;;;2.00;100.00;95593.88;1023026;29;20386;-75
2023/10/18 00:26:21;;;;;;;0.60;0.60;;;;;;;2.03;100.00;95604.59;1015355;29;20470;-75
2023/10/18 00:26:53;;;;;;;0.98;0.98;;;;;;;1.99;100.00;95594.91;1015016;29;20036;-75
2023/10/18 00:27:25;;;;;;;2.60;2.42;;;;;;;2.03;100.00;95603.81;1015572;29;20315;-74
2023/10/18 00:27:55;;;;;;;2.53;2.28;;;;;;;2.01;100.00;95598.88;1015607;29;20275;-76
2023/10/18 00:28:27;;;;;;;3.85;2.58;;;;;;;2.00;100.00;95602.44;1019396;28;20283;-74
2023/10/18 00:28:57;;;;;;;1.35;1.25;;;;;;;1.99;100.00;95600.88;1022504;29;20086;-75
2023/10/18 00:29:28;;;;;;;1.13;1.13;;;;;;;1.91;100.00;95588.19;1019420;29;20717;-75
2023/10/18 00:29:58;;;;;;;2.42;1.65;;;;;;;1.99;100.00;95611.22;1023154;29;20073;-77
2023/10/18 00:30:30;;;;;;;2.38;2.20;;;;;;;2.01;100.00;95603.22;1019092;29;20020;-75
2023/10/18 00:31:17;;;;;;;0.88;0.88;;;;;;;1.94;100.00;95595.53;1019388;29;20124;-76
2023/10/18 00:31:47;;;;;;;1.45;1.35;;;;;;;1.97;100.00;95596.91;1019259;29;20271;-75
2023/10/18 00:32:18;;;;;;;1.88;0.90;;;;;;;1.96;100.00;95605.66;1018800;29;20271;-76
2023/10/18 00:32:48;;;;;;;0.43;0.43;;;;;;;1.96;100.00;95598.69;1018762;29;20453;-77
2023/10/18 00:33:19;;;;;;;1.55;1.45;;;;;;;1.94;100.00;95600.69;1015256;29;20024;-75
2023/10/18 00:33:49;;;;;;;0.65;0.50;;;;;;;1.92;100.00;95600.13;1017511;29;20036;-76
2023/10/18 00:34:20;;;;;;;1.67;1.48;;;;;;;1.95;100.00;95598.91;1018995;29;20421;-77
2023/10/18 00:34:53;;;;;;;2.53;1.45;;;;;;;1.93;100.00;95593.94;1015116;29;20028;-77
2023/10/18 00:35:31;;;;;;;0.75;0.75;;;;;;;1.93;100.00;95591.34;1020743;28;20066;-74
2023/10/18 00:36:03;;;;;;;2.35;2.25;;;;;;;1.93;100.00;95601.72;1027094;28;20764;-75
2023/10/18 00:36:34;;;;;;;1.88;1.48;;;;;;;1.94;100.00;95603.28;1026707;28;20281;-75
2023/10/18 00:37:07;;;;;;;5.00;3.67;;;;;;;1.93;100.00;95600.91;1022920;28;20389;-75
2023/10/18 00:37:44;;;;;;;1.00;1.00;;;;;;;1.93;100.00;95600.91;1023048;29;20273;-75
2023/10/18 00:38:18;;;;;;;3.88;1.70;;;;;;;1.91;100.00;95593.34;1023086;29;20290;-76
2023/10/18 00:38:48;;;;;;;0.85;0.85;;;;;;;1.91;100.00;95583.00;1018879;29;20323;-75
2023/10/18 00:39:27;;;;;;;2.20;1.83;;;;;;;1.92;100.00;95592.38;1018033;29;20271;-76
2023/10/18 00:39:57;;;;;;;0.93;0.93;;;;;;;1.93;100.00;95590.56;1017398;29;20441;-76
2023/10/18 00:40:58;;;;;;;1.00;0.95;;;;;;;1.91;100.00;95582.22;1023154;29;20031;-76
2023/10/18 00:41:42;;;;;;;1.75;0.75;;;;;;;1.88;100.00;95589.41;1020115;29;20111;-76
2023/10/18 00:43:22;;;;;;;1.85;1.60;;;;;;;1.87;100.00;95589.59;1004821;29;20285;-76
2023/10/18 00:43:53;;;;;;;0.85;0.85;;;;;;;1.86;100.00;95588.03;1011262;29;20257;-75
2023/10/18 00:44:23;;;;;;;2.00;1.83;;;;;;;1.79;100.00;95569.19;1011827;29;20028;-75
2023/10/18 00:45:08;;;;;;;0.50;0.50;;;;;;;1.83;100.00;95576.31;1013091;29;20044;-74
2023/10/18 00:45:43;;;;;;;3.15;0.63;;;;;;;1.84;100.00;95574.50;1020913;29;20035;-75
2023/10/18 00:46:15;;;;;;;1.10;1.00;;;;;;;1.82;100.00;95571.34;1023502;29;20836;-74
2023/10/18 00:46:46;;;;;;;0.80;0.80;;;;;;;1.80;100.00;95579.31;1022396;29;20291;-75
2023/10/18 00:47:17;;;;;;;2.47;1.52;;;;;;;1.79;100.00;95574.38;1015020;29;20286;-75
2023/10/18 00:47:48;;;;;;;0.95;0.95;;;;;;;1.79;100.00;95579.53;1007662;29;20272;-74
2023/10/18 00:48:20;;;;;;;1.42;1.08;;;;;;;1.78;100.00;95583.94;1008268;29;20029;-75
2023/10/18 00:48:50;;;;;;;1.85;0.55;;;;;;;1.78;100.00;95577.97;1015429;29;20340;-75
2023/10/18 00:49:21;;;;;;;1.33;0.98;;;;;;;1.73;100.00;95575.19;1019530;29;20331;-76
2023/10/18 00:49:52;;;;;;;2.30;2.10;;;;;;;1.80;100.00;95570.75;1007349;29;20021;-77
2023/10/18 00:50:27;;;;;;;1.00;0.73;;;;;;;1.74;100.00;95576.78;1018920;29;20148;-75
2023/10/18 00:50:58;;;;;;;3.40;2.53;;;;;;;1.76;100.00;95575.56;1015011;29;20260;-75
2023/10/18 00:51:28;;;;;;;0.40;0.40;;;;;;;1.75;100.00;95574.00;1015787;29;20275;-75
2023/10/18 00:51:59;;;;;;;1.27;0.98;;;;;;;1.75;100.00;95573.22;1010866;29;20163;-76
2023/10/18 00:52:30;;;;;;;1.95;1.55;;;;;;;1.75;100.00;95575.78;1014759;29;20020;-75
2023/10/18 00:53:01;;;;;;;2.17;2.03;;;;;;;1.76;100.00;95579.97;1018268;29;20036;-75
2023/10/18 00:53:31;;;;;;;2.55;1.95;;;;;;;1.72;100.00;95573.63;1023280;29;20364;-75
2023/10/18 00:54:03;;;;;;;2.40;0.68;;;;;;;1.74;100.00;95572.41;1014984;29;20031;-75
2023/10/18 00:54:33;;;;;;;1.27;1.27;;;;;;;1.72;100.00;95579.59;1011175;29;20024;-75
2023/10/18 00:55:05;;;;;;;6.03;1.67;;;;;;;1.75;100.00;95578.38;1015429;29;20272;-76
2023/10/18 00:55:35;;;;;;;1.45;1.45;;;;;;;1.72;100.00;95574.41;1018854;29;20039;-76
2023/10/18 00:56:06;;;;;;;1.85;1.17;;;;;;;1.75;100.00;95573.22;1022590;29;20266;-75
2023/10/18 00:56:40;;;;;;;2.13;2.00;;;;;;;1.74;100.00;95579.38;1022480;28;20034;-76
2023/10/18 00:57:11;;;;;;;0.70;0.70;;;;;;;1.73;100.00;95575.19;1023201;28;20039;-76
2023/10/18 00:57:43;;;;;;;3.67;1.08;;;;;;;1.65;100.00;95569.28;1026271;28;20274;-75
2023/10/18 00:58:15;;;;;;;0.65;0.60;;;;;;;1.72;100.00;95577.00;1022844;29;20329;-76
2023/10/18 00:58:47;;;;;;;0.50;0.50;;;;;;;1.70;100.00;95578.22;1019184;29;20268;-75
2023/10/18 00:59:26;;;;;;;1.80;1.38;;;;;;;1.69;100.00;95577.41;1019060;29;20362;-75
2023/10/18 00:59:56;;;;;;;0.68;0.68;;;;;;;1.69;100.00;95576.63;1015421;29;20283;-74
2023/10/18 01:00:28;;;;;;;0.95;0.90;;;;;;;1.69;100.00;95569.66;1024621;28;20290;-75
2023/10/18 01:01:01;;;;;;;0.85;0.85;;;;;;;1.70;100.00;95578.22;1024349;28;20058;-76
2023/10/18 01:01:35;;;;;;;1.23;1.10;;;;;;;1.68;100.00;95572.44;1024802;28;20309;-75
2023/10/18 01:02:11;;;;;;;2.05;1.08;;;;;;;1.67;100.00;95573.44;1025674;28;20337;-75
2023/10/18 01:02:43;;;;;;;1.52;1.05;;;;;;;1.69;100.00;95579.22;1023790;28;20274;-75
2023/10/18 01:03:35;;;;;;;1.20;1.13;;;;;;;1.68;100.00;95575.03;1022877;29;20275;-75
2023/10/18 01:04:06;;;;;;;0.43;0.43;;;;;;;1.59;100.00;95559.78;1018869;29;20271;-76
2023/10/18 01:04:40;;;;;;;1.13;1.13;;;;;;;1.64;100.00;95572.88;1022979;29;20749;-75
2023/10/18 01:05:11;;;;;;;1.42;1.33;;;;;;;1.65;100.00;95576.25;1030263;28;20566;-75
2023/10/18 01:06:00;;;;;;;0.80;0.80;;;;;;;1.65;100.00;95577.06;1022827;29;20285;-75
2023/10/18 01:06:31;;;;;;;2.10;1.45;;;;;;;1.65;100.00;95574.47;1018820;29;20032;-76
2023/10/18 01:07:11;;;;;;;0.90;0.90;;;;;;;1.63;100.00;95568.69;1016451;29;20328;-76
2023/10/18 01:07:43;;;;;;;5.63;1.90;;;;;;;1.62;100.00;95559.38;1010996;29;20269;-76
2023/10/18 01:08:14;;;;;;;3.63;1.40;;;;;;;1.65;100.00;95564.13;1018913;29;20440;-75
2023/10/18 01:08:44;;;;;;;1.80;1.55;;;;;;;1.65;100.00;95571.09;1019036;29;20316;-75
2023/10/18 01:09:16;;;;;;;1.60;1.25;;;;;;;1.63;100.00;95560.16;1023157;28;20271;-75
2023/10/18 01:09:49;;;;;;;0.70;0.70;;;;;;;1.61;100.00;95562.97;1018489;29;20028;-75
2023/10/18 01:10:23;;;;;;;1.08;0.93;;;;;;;1.65;100.00;95563.34;1011073;29;20277;-75
2023/10/18 01:10:54;;;;;;;6.84;2.50;;;;;;;1.63;100.00;95566.13;1011117;29;20283;-75
2023/10/18 01:11:31;;;;;;;1.33;1.23;;;;;;;1.63;100.00;95568.69;1016172;29;20059;-75
2023/10/18 01:12:01;;;;;;;1.15;1.15;;;;;;;1.60;100.00;95561.34;1022058;28;20039;-75
2023/10/18 01:12:34;;;;;;;0.85;0.85;;;;;;;1.61;100.00;95560.38;1026340;28;20266;-75
2023/10/18 01:13:05;;;;;;;0.55;0.55;;;;;;;1.62;100.00;95564.53;1021618;29;20070;-74
2023/10/18 01:13:41;;;;;;;1.25;1.23;;;;;;;1.54;100.00;95546.72;1018767;29;20294;-75
2023/10/18 01:14:16;;;;;;;0.63;0.63;;;;;;;1.58;100.00;95560.78;1011040;29;20364;-75
2023/10/18 01:14:48;;;;;;;0.35;0.32;;;;;;;1.57;100.00;95561.00;1012869;29;20283;-74
2023/10/18 01:15:20;;;;;;;1.23;1.13;;;;;;;1.57;100.00;95555.81;1012722;29;20469;-74
2023/10/18 01:15:51;;;;;;;0.82;0.82;;;;;;;1.56;100.00;95549.84;1012344;29;21029;-75
2023/10/18 01:16:22;;;;;;;0.85;0.85;;;;;;;1.50;100.00;95548.09;1014842;29;20279;-74
2023/10/18 01:16:56;;;;;;;2.00;1.80;;;;;;;1.56;100.00;95556.81;1014997;29;20051;-75
2023/10/18 01:17:27;;;;;;;2.75;1.70;;;;;;;1.55;100.00;95548.28;1014973;29;20359;-75
2023/10/18 01:17:57;;;;;;;2.08;0.63;;;;;;;1.55;100.00;95550.09;1015235;29;20847;-75
2023/10/18 01:18:27;;;;;;;2.80;1.60;;;;;;;1.54;100.00;95549.28;1019144;28;20040;-75
2023/10/18 01:19:01;;;;;;;1.88;1.13;;;;;;;1.54;100.00;95551.06;1018851;29;20043;-75
2023/10/18 01:19:31;;;;;;;2.15;1.55;;;;;;;1.56;100.00;95555.03;1019182;29;20275;-76
2023/10/18 01:20:33;;;;;;;1.55;1.45;;;;;;;1.52;100.00;95546.13;1020996;29;21063;-75
2023/10/18 01:20:53;;;;;;;1.50;1.40;;;;;;;1.51;100.00;95541.97;1024701;28;20057;-74
2023/10/18 01:21:23;;;;;;;0.25;0.25;;;;;;;1.49;100.00;95549.13;1026873;28;20039;-74
2023/10/18 01:21:54;;;;;;;2.22;2.13;;;;;;;1.49;100.00;95548.34;1026880;28;20042;-75
2023/10/18 01:22:25;;;;;;;1.55;1.45;;;;;;;1.49;100.00;95551.72;1023873;28;20023;-75
2023/10/18 01:22:55;;;;;;;2.67;0.93;;;;;;;1.50;100.00;95550.69;1026163;28;20265;-75
2023/10/18 01:23:27;;;;;;;1.85;1.45;;;;;;;1.51;100.00;95544.53;1023034;28;20027;-76
2023/10/18 01:23:59;;;;;;;0.50;0.50;;;;;;;1.50;100.00;95548.09;1018769;29;20035;-75
2023/10/18 01:24:34;;;;;;;1.50;1.15;;;;;;;1.45;100.00;95537.63;1018615;29;20276;-76
2023/10/18 01:25:09;;;;;;;1.35;1.25;;;;;;;1.49;100.00;95543.94;1014981;29;20276;-76
2023/10/18 01:25:40;;;;;;;1.92;1.73;;;;;;;1.50;100.00;95544.72;1014882;29;20271;-76
2023/10/18 01:26:13;;;;;;;3.65;3.15;;;;;;;1.52;100.00;95543.53;1011200;29;20273;-74
2023/10/18 01:26:44;;;;;;;1.60;1.45;;;;;;;1.51;100.00;95543.72;1008536;29;20281;-73
2023/10/18 01:27:16;;;;;;;1.48;1.38;;;;;;;1.49;100.00;95546.53;1016347;29;20283;-74
2023/10/18 01:27:48;;;;;;;2.88;2.67;;;;;;;1.49;100.00;95543.94;1023001;29;20400;-74
2023/10/18 01:28:18;;;;;;;2.35;1.83;;;;;;;1.49;100.00;95543.16;1023537;28;20583;-75
2023/10/18 01:28:50;;;;;;;1.55;1.45;;;;;;;1.48;100.00;95541.59;1027056;28;20266;-75
2023/10/18 01:29:22;;;;;;;1.23;0.93;;;;;;;1.48;100.00;95542.38;1022774;29;20027;-75
2023/10/18 01:29:52;;;;;;;0.52;0.52;;;;;;;1.50;100.00;95539.56;1018788;29;20346;-74
2023/10/18 01:30:23;;;;;;;1.60;1.17;;;;;;;1.49;100.00;95535.41;1018870;29;20264;-74
2023/10/18 01:30:53;;;;;;;0.90;0.90;;;;;;;1.49;100.00;95543.94;1018762;29;20414;-74
2023/10/18 01:31:24;;;;;;;4.25;3.15;;;;;;;1.50;100.00;95540.34;1022913;28;20062;-74
2023/10/18 01:31:55;;;;;;;5.47;2.88;;;;;;;1.53;100.00;95539.94;1015739;29;20429;-75
2023/10/18 01:32:28;;;;;;;0.75;0.55;;;;;;;1.49;100.00;95538.78;1018628;29;20106;-75
2023/10/18 01:33:04;;;;;;;0.70;0.70;;;;;;;1.49;100.00;95540.56;1010583;29;20273;-74
2023/10/18 01:33:39;;;;;;;0.90;0.63;;;;;;;1.35;100.00;95520.00;1013745;28;20787;-74
2023/10/18 01:34:10;;;;;;;3.03;2.00;;;;;;;1.48;100.00;95544.16;1016968;29;20754;-77
2023/10/18 01:34:41;;;;;;;0.90;0.90;;;;;;;1.43;100.00;95524.09;1016608;29;20268;-75
2023/10/18 01:35:15;;;;;;;0.57;0.57;;;;;;;1.42;100.00;95531.06;1014933;29;20276;-74
2023/10/18 01:35:50;;;;;;;1.48;1.38;;;;;;;1.46;100.00;95539.19;1015696;29;20032;-75
2023/10/18 01:36:21;;;;;;;0.40;0.40;;;;;;;1.47;100.00;95538.19;1018894;29;20263;-74
2023/10/18 01:36:52;;;;;;;0.77;0.77;;;;;;;1.47;100.00;95530.44;1019917;29;20285;-76
2023/10/18 01:37:23;;;;;;;1.52;1.40;;;;;;;1.44;100.00;95536.00;1021232;28;20031;-74
2023/10/18 01:37:53;;;;;;;1.00;1.00;;;;;;;1.43;100.00;95529.28;1018871;29;20304;-74
2023/10/18 01:38:30;;;;;;;1.00;1.00;;;;;;;1.42;100.00;95527.69;1015310;29;20048;-76
2023/10/18 01:39:00;;;;;;;1.70;1.60;;;;;;;1.44;100.00;95530.84;1019357;29;20087;-74
2023/10/18 01:39:31;;;;;;;1.52;1.13;;;;;;;1.45;100.00;95526.50;1022717;29;20314;-74
2023/10/18 01:40:55;;;;;;;4.57;2.05;;;;;;;1.44;100.00;95523.09;1018726;29;20260;-74
2023/10/18 01:41:26;;;;;;;0.50;0.50;;;;;;;1.43;100.00;95521.53;1019001;29;20326;-75
2023/10/18 01:41:58;;;;;;;1.17;1.17;;;;;;;1.40;100.00;95519.34;1021783;29;20665;-75
2023/10/18 01:42:30;;;;;;;5.75;2.40;;;;;;;1.41;100.00;95531.28;1025847;28;20027;-74
2023/10/18 01:43:00;;;;;;;0.95;0.95;;;;;;;1.40;100.00;95533.06;1026145;28;20281;-75
2023/10/18 01:43:31;;;;;;;1.23;1.23;;;;;;;1.40;100.00;95529.69;1026693;28;20273;-75
2023/10/18 01:44:37;;;;;;;0.75;0.73;;;;;;;1.30;100.00;95514.66;1018824;29;20397;-75
2023/10/18 01:45:08;;;;;;;1.25;1.20;;;;;;;1.39;100.00;95533.28;1014888;29;20392;-75
2023/10/18 01:45:39;;;;;;;1.45;1.35;;;;;;;1.37;100.00;95528.31;1012612;29;20284;-74
2023/10/18 01:46:13;;;;;;;1.77;1.65;;;;;;;1.39;100.00;95535.88;1015205;29;20295;-77
2023/10/18 01:46:46;;;;;;;3.10;1.83;;;;;;;1.36;100.00;95529.31;1015742;29;20661;-75
2023/10/18 01:47:20;;;;;;;2.05;1.45;;;;;;;1.30;100.00;95524.19;1014555;29;20291;-75
2023/10/18 01:47:51;;;;;;;3.00;2.28;;;;;;;1.35;100.00;95529.53;1012659;29;20273;-75
2023/10/18 01:48:25;;;;;;;0.22;0.20;;;;;;;1.35;100.00;95526.97;1014852;29;20814;-76
2023/10/18 01:48:55;;;;;;;2.42;2.22;;;;;;;1.33;100.00;95524.56;1016307;29;20075;-75
2023/10/18 01:49:26;;;;;;;1.27;1.25;;;;;;;1.35;100.00;95526.97;1015961;29;20280;-76
2023/10/18 01:49:57;;;;;;;1.02;1.02;;;;;;;1.35;100.00;95529.53;1019307;29;20031;-76
2023/10/18 01:50:27;;;;;;;1.38;1.27;;;;;;;1.29;100.00;95514.88;1022897;29;20082;-74
2023/10/18 01:51:01;;;;;;;4.57;1.73;;;;;;;1.34;100.00;95520.19;1019038;29;20038;-76
2023/10/18 01:51:32;;;;;;;0.88;0.88;;;;;;;1.33;100.00;95519.41;1018742;29;20144;-74
2023/10/18 01:52:04;;;;;;;0.93;0.93;;;;;;;1.31;100.00;95515.47;1019175;29;20271;-75
2023/10/18 01:52:37;;;;;;;1.50;1.42;;;;;;;1.33;100.00;95519.41;1018838;29;20347;-74
2023/10/18 01:53:15;;;;;;;1.20;0.95;;;;;;;1.33;100.00;95516.81;1019619;29;20275;-76
2023/10/18 01:53:46;;;;;;;0.65;0.65;;;;;;;1.33;100.00;95516.81;1022966;28;20274;-75
2023/10/18 01:54:17;;;;;;;5.97;5.18;;;;;;;1.33;100.00;95519.41;1018332;29;20259;-75
2023/10/18 01:54:48;;;;;;;0.85;0.85;;;;;;;1.29;100.00;95502.72;1016796;29;20043;-75
2023/10/18 01:55:18;;;;;;;2.67;2.25;;;;;;;1.26;100.00;95503.16;1014985;29;20275;-74
2023/10/18 01:55:53;;;;;;;0.45;0.45;;;;;;;1.32;100.00;95517.81;1007019;29;20052;-75
2023/10/18 01:56:23;;;;;;;1.85;1.70;;;;;;;1.33;100.00;95521.19;1012014;29;20462;-74
2023/10/18 01:57:00;;;;;;;4.40;4.00;;;;;;;1.25;100.00;95500.78;1015505;29;20368;-74
2023/10/18 01:57:32;;;;;;;0.65;0.65;;;;;;;1.30;100.00;95508.69;1016275;29;20036;-75
2023/10/18 01:58:07;;;;;;;1.33;1.33;;;;;;;1.30;100.00;95513.84;1019002;29;20817;-74
2023/10/18 01:58:38;;;;;;;1.00;1.00;;;;;;;1.22;100.00;95498.63;1018810;29;20264;-76
2023/10/18 01:59:17;;;;;;;1.75;1.02;;;;;;;1.30;100.00;95516.44;1013662;29;20285;-74
2023/10/18 01:59:51;;;;;;;2.83;1.42;;;;;;;1.29;100.00;95517.44;1014218;29;20553;-75
2023/10/18 02:00:34;;;;;;;2.08;1.98;;;;;;;1.27;100.00;95514.28;1015006;29;20887;-75
2023/10/18 02:01:08;;;;;;;1.23;1.08;;;;;;;1.25;100.00;95511.13;1021349;29;20275;-74
2023/10/18 02:01:38;;;;;;;1.17;1.13;;;;;;;1.27;100.00;95516.84;1017553;29;20346;-75
2023/10/18 02:02:11;;;;;;;1.25;1.25;;;;;;;1.25;100.00;95511.91;1012658;29;20292;-74
2023/10/18 02:02:43;;;;;;;0.55;0.55;;;;;;;1.23;100.00;95503.56;1010338;29;20043;-74
2023/10/18 02:03:14;;;;;;;1.70;1.60;;;;;;;1.23;100.00;95510.53;1014533;29;20347;-74
2023/10/18 02:03:44;;;;;;;1.38;1.27;;;;;;;1.25;100.00;95516.28;1019345;29;20036;-75
2023/10/18 02:04:25;;;;;;;2.17;1.38;;;;;;;1.24;100.00;95509.53;1018905;29;20032;-75
2023/10/18 02:04:56;;;;;;;;;;;;;;;1.20;100.00;95511.72;1025685;28;20103;-74
2023/10/18 02:05:27;;;;;;;1.17;1.10;;;;;;;1.18;100.00;95511.16;1026764;28;20391;-75
2023/10/18 02:05:58;;;;;;;2.28;2.08;;;;;;;1.24;100.00;95509.53;1021257;29;20282;-74
2023/10/18 02:06:28;;;;;;;1.98;0.43;;;;;;;1.21;100.00;95507.34;1019772;28;20462;-74
2023/10/18 02:07:02;;;;;;;0.70;0.70;;;;;;;1.22;100.00;95516.72;1015379;29;20125;-73
2023/10/18 02:07:32;;;;;;;1.08;1.05;;;;;;;1.20;100.00;95509.16;1015354;29;20036;-75
2023/10/18 02:08:05;;;;;;;1.45;1.35;;;;;;;1.21;100.00;95509.94;1014454;29;20264;-73
2023/10/18 02:08:36;;;;;;;2.63;2.45;;;;;;;1.12;100.00;95497.28;1014645;29;20028;-75
2023/10/18 02:09:10;;;;;;;1.35;1.27;;;;;;;1.16;100.00;95508.78;1014587;29;20837;-75
2023/10/18 02:09:52;;;;;;;1.14;0.96;;;;;;;1.18;100.00;95511.94;1017068;29;20453;-76
2023/10/18 02:10:23;;;;;;;1.76;1.66;;;;;;;1.17;100.00;95510.38;1022683;28;20038;-74
2023/10/18 02:10:53;;;;;;;0.93;0.88;;;;;;;1.18;100.00;95506.78;1018795;29;20856;-74
2023/10/18 02:11:24;;;;;;;1.95;1.85;;;;;;;1.20;100.00;95516.13;1015215;29;20135;-73
2023/10/18 02:11:54;;;;;;;1.02;0.93;;;;;;;1.17;100.00;95507.78;1018425;29;20125;-73
2023/10/18 02:12:27;;;;;;;1.85;1.48;;;;;;;1.20;100.00;95514.31;1018772;29;20031;-75
2023/10/18 02:12:57;;;;;;;3.20;2.58;;;;;;;1.18;100.00;95511.16;1018509;29;20039;-74
2023/10/18 02:13:28;;;;;;;1.60;1.55;;;;;;;1.18;100.00;95511.16;1028358;28;20266;-74
2023/10/18 02:13:58;;;;;;;1.50;1.40;;;;;;;1.17;100.00;95502.63;1031085;28;20025;-75
2023/10/18 02:14:29;;;;;;;2.45;1.85;;;;;;;1.20;100.00;95505.78;1030812;28;20022;-74
2023/10/18 02:15:01;;;;;;;0.50;0.50;;;;;;;1.19;100.00;95512.75;1022537;29;20031;-73
2023/10/18 02:15:32;;;;;;;0.43;0.43;;;;;;;1.19;100.00;95507.56;1022906;29;20195;-74
2023/10/18 02:16:06;;;;;;;4.97;1.58;;;;;;;1.20;100.00;95503.19;1022640;29;20839;-75
2023/10/18 02:16:37;;;;;;;0.60;0.60;;;;;;;1.17;100.00;95505.22;1023396;28;20353;-75
2023/10/18 02:17:09;;;;;;;1.50;1.45;;;;;;;1.16;100.00;95506.19;1026425;28;20857;-74
2023/10/18 02:17:40;;;;;;;1.23;0.85;;;;;;;1.18;100.00;95509.38;1022823;29;20330;-75
2023/10/18 02:18:11;;;;;;;1.58;1.17;;;;;;;1.18;100.00;95504.19;1023324;28;20413;-76
2023/10/18 02:18:41;;;;;;;2.83;1.30;;;;;;;1.20;100.00;95508.38;1022714;28;20031;-74
2023/10/18 02:19:13;;;;;;;2.65;2.20;;;;;;;1.14;100.00;95503.03;1019156;29;20027;-75
2023/10/18 02:19:44;;;;;;;2.58;2.38;;;;;;;1.20;100.00;95503.19;1022651;29;20023;-73
2023/10/18 02:20:25;;;;;;;1.73;1.60;;;;;;;1.20;100.00;95503.19;1018721;29;20281;-74
2023/10/18 02:20:55;;;;;;;2.30;2.05;;;;;;;1.20;100.00;95500.59;1019021;29;20327;-75
2023/10/18 02:21:26;;;;;;;5.95;2.65;;;;;;;1.20;100.00;95503.97;1011231;29;20043;-75
2023/10/18 02:21:59;;;;;;;1.38;0.73;;;;;;;1.20;100.00;95500.59;1014273;29;20036;-77
2023/10/18 02:22:30;;;;;;;0.50;0.50;;;;;;;1.22;100.00;95496.03;1018664;29;20142;-75
2023/10/18 02:23:01;;;;;;;2.55;2.35;;;;;;;1.22;100.00;95493.44;1022621;28;20848;-75
2023/10/18 02:23:34;;;;;;;0.96;0.96;;;;;;;1.21;100.00;95499.59;1021679;28;20019;-73
2023/10/18 02:24:06;;;;;;;5.10;1.23;;;;;;;1.23;100.00;95495.03;1018868;29;20032;-74
2023/10/18 02:24:38;;;;;;;5.20;1.88;;;;;;;1.21;100.00;95494.44;1023081;29;20358;-75
2023/10/18 02:25:09;;;;;;;2.53;0.95;;;;;;;1.22;100.00;95493.44;1024985;28;20039;-74
2023/10/18 02:26:30;;;;;;;1.77;1.67;;;;;;;1.22;100.00;95491.66;1026640;28;20460;-75
2023/10/18 02:27:01;;;;;;;0.94;0.94;;;;;;;1.21;100.00;95489.25;1020306;29;20292;-75
2023/10/18 02:27:31;;;;;;;1.23;1.23;;;;;;;1.22;100.00;95485.69;1023274;29;20031;-74
2023/10/18 02:28:08;;;;;;;14.90;1.65;;;;;;;1.18;100.00;95480.16;1023068;29;20031;-74
2023/10/18 02:28:40;;;;;;;1.63;1.52;;;;;;;1.20;100.00;95483.31;1018956;29;20144;-74
2023/10/18 02:29:13;;;;;;;1.95;1.85;;;;;;;1.20;100.00;95487.69;1019275;29;20276;-75
2023/10/18 02:29:44;;;;;;;1.10;1.10;;;;;;;1.20;100.00;95483.31;1019989;29;20621;-73
2023/10/18 02:30:19;;;;;;;1.60;0.65;;;;;;;1.24;100.00;95478.50;1018635;29;20264;-75
2023/10/18 02:31:23;;;;;;;2.10;0.95;;;;;;;1.23;100.00;95480.31;1023833;29;20267;-74
2023/10/18 02:31:49;;;;;;;0.50;0.50;;;;;;;1.22;100.00;95475.38;1017210;29;20323;-74
2023/10/18 02:32:34;;;;;;;0.80;0.80;;;;;;;1.24;100.00;95478.50;1015748;29;20261;-74
2023/10/18 02:33:05;;;;;;;2.15;2.03;;;;;;;1.21;100.00;95473.75;1016961;29;20256;-75
2023/10/18 02:33:36;;;;;;;1.67;0.82;;;;;;;1.24;100.00;95475.91;1022985;29;20251;-73
2023/10/18 02:34:08;;;;;;;2.58;1.10;;;;;;;1.18;100.00;95456.91;1029273;28;20058;-75
2023/10/18 02:34:39;;;;;;;0.57;0.57;;;;;;;1.21;100.00;95469.41;1031399;28;20033;-74
2023/10/18 02:35:11;;;;;;;2.95;2.50;;;;;;;1.22;100.00;95470.19;1026413;28;20281;-74
2023/10/18 02:35:43;;;;;;;0.98;0.98;;;;;;;1.21;100.00;95472.00;1019605;29;20043;-74
2023/10/18 02:36:21;;;;;;;2.72;2.53;;;;;;;1.20;100.00;95467.00;1019860;29;20665;-74
2023/10/18 02:36:52;;;;;;;0.60;0.60;;;;;;;1.22;100.00;95470.19;1024594;28;20265;-74
2023/10/18 02:37:24;;;;;;;1.27;1.17;;;;;;;1.21;100.00;95466.81;1027010;28;20266;-74
2023/10/18 02:37:55;;;;;;;3.53;1.27;;;;;;;1.20;100.00;95467.00;1023048;29;20259;-74
2023/10/18 02:38:26;;;;;;;2.92;1.55;;;;;;;1.25;100.00;95470.56;1019306;29;20268;-73